SAVT/REL METAR and TAF weather

Enter ICAO airport designator
Station Type Date Time Source
SAVT METAR 2022/07/01 06:28 UTC NOAA

SAVT 010628Z 34017G29KT 9999 -RA BKN058 07/01 Q1003


Station Type Date Time Source
SAVT Decoded METAR 2022/07/01 06:28 UTC NOAA

Trelew Aerodrome, Argentina (SAVT) 43-12S 065-16W 43M
Jul 01, 2022 - 02:28 AM EDT / 2022.07.01 0628 UTC
Wind: from the NNW (340 degrees) at 20 MPH (17 KT) gusting to 33 MPH (29 KT):0
Visibility: greater than 7 mile(s):0
Sky conditions: mostly cloudy
Weather: light rain
Temperature: 44 F (7 C)
Dew Point: 33 F (1 C)
Relative Humidity: 65%
Pressure (altimeter): 29.62 in. Hg (1003 hPa)
ob: SAVT 010628Z 34017G29KT 9999 -RA BKN058 07/01 Q1003
cycle: 6

Station Type Date Time Source
SAVT TAF 2022/06/24 12:20 UTC NOAA

TAF SAVT 241100Z 2412/2512 24015KT 9999 BKN028 TX09/2419Z TNM02/2510Z
BECMG 2419/2421 VRB05KT CAVOK

Example: see airport list